KZR118 UCFM-UAAA
Flight info
| Callsign | KZR118 |
|---|---|
| Flight time | N/A |
| Altitude | 19000 |
| Route | UMLOD2 UMLOD L143 BINRI Z370 EKLAT EKLAT1Z |
| Aircraft | A321/M-SDE3FGHIRWY/LB1 |
Departure
| Time | N/A |
|---|---|
| Airport | Manas International Airport (UCFM) |
Arrival
| Time | 2026-05-04 16:12 |
|---|---|
| Airport | Almaty International Airport (UAAA) |
| Time | Latitude | Longitude | Altitude | Speed | Heading |
|---|---|---|---|---|---|
| 2026-05-04 15:50 | 43.32588 | 74.97165 | 15885 ft | 316 kts | 66° |
| 2026-05-04 15:50 | 43.33457 | 75.00031 | 16021 ft | 333 kts | 66° |
| 2026-05-04 15:50 | 43.34368 | 75.03027 | 16137 ft | 348 kts | 66° |
| 2026-05-04 15:50 | 43.35331 | 75.06166 | 16280 ft | 363 kts | 66° |
| 2026-05-04 15:51 | 43.36322 | 75.09366 | 16566 ft | 371 kts | 65° |
| 2026-05-04 15:51 | 43.37568 | 75.12485 | 17005 ft | 375 kts | 55° |
| 2026-05-04 15:51 | 43.39220 | 75.15268 | 17474 ft | 377 kts | 48° |
| 2026-05-04 15:51 | 43.40796 | 75.18168 | 17927 ft | 381 kts | 60° |
| 2026-05-04 15:52 | 43.41857 | 75.21521 | 18367 ft | 385 kts | 73° |
| 2026-05-04 15:52 | 43.42339 | 75.25154 | 18737 ft | 389 kts | 86° |
| 2026-05-04 15:52 | 43.42207 | 75.28886 | 19110 ft | 393 kts | 99° |
| 2026-05-04 15:52 | 43.41571 | 75.32552 | 19486 ft | 396 kts | 103° |
| 2026-05-04 15:53 | 43.40883 | 75.36227 | 19871 ft | 398 kts | 103° |
| 2026-05-04 15:53 | 43.40193 | 75.39925 | 20254 ft | 401 kts | 103° |
| 2026-05-04 15:53 | 43.39500 | 75.43652 | 20647 ft | 403 kts | 103° |
| 2026-05-04 15:53 | 43.38802 | 75.47395 | 21046 ft | 405 kts | 103° |
| 2026-05-04 15:54 | 43.38101 | 75.51161 | 21449 ft | 407 kts | 104° |
| 2026-05-04 15:54 | 43.37457 | 75.54949 | 21857 ft | 408 kts | 98° |
| 2026-05-04 15:54 | 43.37077 | 75.58818 | 22281 ft | 408 kts | 97° |
| 2026-05-04 15:54 | 43.36709 | 75.62691 | 22691 ft | 409 kts | 97° |
| 2026-05-04 15:55 | 43.36334 | 75.66573 | 23117 ft | 410 kts | 97° |
| 2026-05-04 15:55 | 43.35959 | 75.70408 | 23540 ft | 411 kts | 97° |
| 2026-05-04 15:55 | 43.35575 | 75.74305 | 23929 ft | 411 kts | 97° |
| 2026-05-04 15:55 | 43.35190 | 75.78205 | 24293 ft | 412 kts | 97° |
| 2026-05-04 15:56 | 43.34805 | 75.82113 | 24666 ft | 412 kts | 98° |
| 2026-05-04 15:56 | 43.34422 | 75.86018 | 25041 ft | 412 kts | 98° |
| 2026-05-04 15:56 | 43.34040 | 75.89910 | 25422 ft | 411 kts | 98° |
| 2026-05-04 15:56 | 43.33657 | 75.93804 | 25809 ft | 411 kts | 98° |
| 2026-05-04 15:57 | 43.33273 | 75.97692 | 26198 ft | 410 kts | 98° |
| 2026-05-04 15:57 | 43.32887 | 76.01571 | 26593 ft | 410 kts | 98° |
| 2026-05-04 15:57 | 43.32505 | 76.05392 | 26989 ft | 408 kts | 98° |
| 2026-05-04 15:57 | 43.32119 | 76.09251 | 27393 ft | 407 kts | 98° |
| 2026-05-04 15:58 | 43.31733 | 76.13097 | 27804 ft | 405 kts | 98° |
| 2026-05-04 15:58 | 43.31347 | 76.16918 | 28229 ft | 403 kts | 98° |
| 2026-05-04 15:58 | 43.30959 | 76.20724 | 28647 ft | 402 kts | 99° |
| 2026-05-04 15:58 | 43.30562 | 76.24579 | 28457 ft | 417 kts | 98° |
| 2026-05-04 15:59 | 43.30148 | 76.28593 | 28213 ft | 432 kts | 98° |
| 2026-05-04 15:59 | 43.29717 | 76.32747 | 28005 ft | 446 kts | 98° |
| 2026-05-04 15:59 | 43.29271 | 76.37029 | 27806 ft | 460 kts | 98° |
| 2026-05-04 15:59 | 43.28819 | 76.41390 | 27578 ft | 460 kts | 98° |
| 2026-05-04 16:00 | 43.28373 | 76.45715 | 27322 ft | 456 kts | 98° |
| 2026-05-04 16:00 | 43.27931 | 76.50005 | 27070 ft | 452 kts | 98° |
| 2026-05-04 16:00 | 43.27488 | 76.54260 | 26814 ft | 449 kts | 98° |
| 2026-05-04 16:00 | 43.27046 | 76.58482 | 25805 ft | 445 kts | 98° |
| 2026-05-04 16:01 | 43.26753 | 76.63000 | 22751 ft | 507 kts | 93° |
| 2026-05-04 16:01 | 43.26567 | 76.67804 | 22386 ft | 493 kts | 93° |
| 2026-05-04 16:01 | 43.26489 | 76.72342 | 22107 ft | 459 kts | 84° |
| 2026-05-04 16:01 | 43.27283 | 76.76375 | 21729 ft | 422 kts | 61° |
| 2026-05-04 16:02 | 43.28985 | 76.79414 | 21406 ft | 389 kts | 39° |
| 2026-05-04 16:02 | 43.31048 | 76.81627 | 20641 ft | 375 kts | 36° |
| 2026-05-04 16:02 | 43.35118 | 76.85869 | 18880 ft | 359 kts | 37° |
| 2026-05-04 16:03 | 43.37094 | 76.87928 | 17957 ft | 353 kts | 37° |
| 2026-05-04 16:03 | 43.38386 | 76.89276 | 17310 ft | 348 kts | 37° |
| 2026-05-04 16:03 | 43.39942 | 76.91391 | 16430 ft | 342 kts | 53° |
| 2026-05-04 16:03 | 43.41309 | 76.94052 | 15454 ft | 338 kts | 55° |
| 2026-05-04 16:04 | 43.42632 | 76.96694 | 14545 ft | 333 kts | 55° |
| 2026-05-04 16:04 | 43.45194 | 77.01859 | 13628 ft | 316 kts | 56° |
| 2026-05-04 16:04 | 43.46408 | 77.04309 | 13393 ft | 306 kts | 56° |
| 2026-05-04 16:05 | 43.47600 | 77.06716 | 12991 ft | 303 kts | 56° |
| 2026-05-04 16:05 | 43.48782 | 77.09100 | 12579 ft | 301 kts | 56° |
| 2026-05-04 16:05 | 43.51132 | 77.13820 | 11752 ft | 297 kts | 56° |
| 2026-05-04 16:06 | 43.52284 | 77.16136 | 11371 ft | 284 kts | 56° |
| 2026-05-04 16:06 | 43.52849 | 77.22531 | 9850 ft | 264 kts | 123° |
| 2026-05-04 16:07 | 43.51047 | 77.24781 | 8885 ft | 263 kts | 145° |
| 2026-05-04 16:07 | 43.46154 | 77.25943 | 6845 ft | 250 kts | 222° |
| 2026-05-04 16:08 | 43.45093 | 77.24136 | 6211 ft | 238 kts | 238° |
| 2026-05-04 16:08 | 43.42599 | 77.18910 | 4545 ft | 199 kts | 238° |
| 2026-05-04 16:09 | 43.41185 | 77.16043 | 3979 ft | 164 kts | 238° |
| 2026-05-04 16:09 | 43.39973 | 77.13584 | 3567 ft | 151 kts | 237° |
| 2026-05-04 16:10 | 43.38812 | 77.11230 | 3155 ft | 148 kts | 236° |
| 2026-05-04 16:11 | 43.37068 | 77.07707 | 2506 ft | 150 kts | 236° |
| 2026-05-04 16:11 | 43.36480 | 77.06519 | 2335 ft | 150 kts | 235° |
| 2026-05-04 16:12 | 43.35071 | 77.03675 | 2233 ft | 68 kts | 235° |
| 2026-05-04 16:12 | 43.34794 | 77.03054 | 2232 ft | 13 kts | 251° |
| 2026-05-04 16:13 | 43.34780 | 77.02901 | 2231 ft | 8 kts | 266° |
| 2026-05-04 16:13 | 43.34772 | 77.02717 | 2233 ft | 10 kts | 267° |
| 2026-05-04 16:14 | 43.34767 | 77.02531 | 2235 ft | 10 kts | 270° |
| 2026-05-04 16:14 | 43.34774 | 77.02353 | 2226 ft | 14 kts | 273° |
| 2026-05-04 16:15 | 43.34795 | 77.01973 | 2226 ft | 11 kts | 274° |
| 2026-05-04 16:16 | 43.34807 | 77.01748 | 2226 ft | 9 kts | 274° |
| 2026-05-04 16:16 | 43.34836 | 77.01515 | 2221 ft | 6 kts | 324° |
| 2026-05-04 16:17 | 43.34896 | 77.01489 | 2223 ft | 3 kts | 326° |
| 2026-05-04 16:18 | 43.34885 | 77.01380 | 2221 ft | 4 kts | 246° |
| 2026-05-04 16:18 | 43.34882 | 77.01370 | 2222 ft | 0 kts | 246° |